Time;durP1;ratioP1;P1;durP2;ratioP2;P2;SDS_P1;SDS_P2;PMS_P1;PMS_P2;Temp;Humidity;BMP_temperature;BMP_pressure;BME280_temperature;BME280_humidity;BME280_pressure;Samples;Min_cycle;Max_cycle;Signal;HPM_P1;HPM_P2
2023/07/28 00:02:23;;;;;;;12.98;4.65;;;;;;;26.10;100.00;100612.19;20866776;28;20136;-76
2023/07/28 00:12:46;;;;;;;13.48;4.40;;;;;;;26.10;100.00;100617.59;20901537;28;20053;-76
2023/07/28 00:23:10;;;;;;;8.10;4.38;;;;;;;26.10;100.00;100612.19;20891799;28;20139;-76
2023/07/28 00:33:33;;;;;;;8.65;4.80;;;;;;;26.01;100.00;100622.59;20929522;28;20098;-76
2023/07/28 00:43:57;;;;;;;12.05;4.65;;;;;;;26.00;100.00;100624.41;20906235;28;20055;-77
2023/07/28 00:54:20;;;;;;;10.27;4.63;;;;;;;25.93;100.00;100628.38;20902128;28;20052;-76
2023/07/28 01:04:45;;;;;;;11.88;5.50;;;;;;;25.86;100.00;100624.25;20890324;28;20490;-76
2023/07/28 01:15:08;;;;;;;11.27;4.40;;;;;;;25.80;100.00;100627.25;20902385;28;20441;-76
2023/07/28 01:25:54;;;;;;;12.32;5.22;;;;;;;25.79;100.00;100617.41;20913856;28;20060;-76
2023/07/28 01:36:18;;;;;;;22.98;5.20;;;;;;;25.83;100.00;100634.34;20907466;28;20082;-75
2023/07/28 01:46:41;;;;;;;13.02;5.07;;;;;;;25.88;100.00;100633.16;20890845;28;20060;-76
2023/07/28 01:57:06;;;;;;;10.40;5.30;;;;;;;25.91;100.00;100618.63;20907557;28;20103;-76
2023/07/28 02:07:30;;;;;;;8.68;4.50;;;;;;;25.98;100.00;100633.59;20902676;28;20089;-76
2023/07/28 02:17:54;;;;;;;10.30;4.82;;;;;;;26.05;100.00;100637.75;20917227;28;20049;-76
2023/07/28 02:28:17;;;;;;;12.10;5.18;;;;;;;26.04;100.00;100652.22;20884718;28;20090;-76
2023/07/28 02:38:41;;;;;;;10.95;5.15;;;;;;;25.96;100.00;100646.31;20903833;28;20448;-76
2023/07/28 02:49:04;;;;;;;16.17;5.07;;;;;;;25.87;100.00;100652.16;20886404;28;20045;-77
2023/07/28 02:59:29;;;;;;;12.00;5.22;;;;;;;25.87;100.00;100661.16;20894269;28;20566;-76
2023/07/28 03:09:52;;;;;;;15.32;5.15;;;;;;;25.84;100.00;100668.56;20880506;28;20140;-77
2023/07/28 03:20:18;;;;;;;8.90;4.80;;;;;;;25.86;100.00;100680.19;20908964;28;20702;-76
2023/07/28 03:30:40;;;;;;;8.82;4.75;;;;;;;25.87;100.00;100677.38;20868213;28;20085;-77
2023/07/28 03:41:06;;;;;;;17.15;4.20;;;;;;;25.98;100.00;100685.88;20886117;28;20036;-76
2023/07/28 03:51:29;;;;;;;13.75;4.78;;;;;;;26.24;100.00;100703.56;20881680;28;20056;-77
2023/07/28 04:01:54;;;;;;;11.15;4.40;;;;;;;26.62;100.00;100728.69;20899956;28;20397;-76
2023/07/28 04:12:16;;;;;;;8.00;4.22;;;;;;;26.99;100.00;100727.66;20889620;28;20742;-76
2023/07/28 04:22:37;;;;;;;11.65;4.80;;;;;;;27.36;100.00;100743.75;20893566;28;20532;-76
2023/07/28 04:33:00;;;;;;;10.55;4.50;;;;;;;27.75;100.00;100742.53;20893120;28;20110;-76
2023/07/28 04:43:31;;;;;;;8.98;3.90;;;;;;;28.21;100.00;100753.53;20889991;28;20064;-76
2023/07/28 04:53:54;;;;;;;11.45;3.92;;;;;;;28.62;100.00;100778.28;20915238;28;20060;-75
2023/07/28 05:04:21;;;;;;;8.18;3.80;;;;;;;29.10;96.90;100763.59;20905144;28;20085;-75
2023/07/28 05:14:44;;;;;;;7.85;3.33;;;;;;;29.67;94.64;100759.13;20926691;28;20056;-76
2023/07/28 05:25:11;;;;;;;10.52;3.88;;;;;;;30.24;91.97;100783.59;20948425;28;20037;-76
2023/07/28 05:35:37;;;;;;;10.00;3.75;;;;;;;30.89;89.80;100791.00;20956141;28;20736;-77
2023/07/28 05:46:03;;;;;;;7.30;3.33;;;;;;;31.52;71.70;100792.06;20986894;28;20052;-77
2023/07/28 05:56:30;;;;;;;7.88;2.85;;;;;;;32.35;56.83;100790.59;20970554;28;20050;-77
2023/07/28 06:06:54;;;;;;;6.43;3.10;;;;;;;33.04;49.34;100797.16;20943233;28;20061;-77
2023/07/28 06:17:17;;;;;;;7.88;3.17;;;;;;;33.85;46.26;100795.28;20918284;28;20108;-76
2023/07/28 06:27:22;;;;;;;9.15;3.30;;;;;;;33.99;44.34;100818.81;20985178;28;20051;-77
2023/07/28 06:37:45;;;;;;;7.28;3.58;;;;;;;34.01;43.92;100820.44;20967048;28;20078;-77
2023/07/28 06:48:09;;;;;;;7.43;3.10;;;;;;;34.29;43.04;100834.66;20959164;28;20092;-77
2023/07/28 06:58:32;;;;;;;12.82;3.95;;;;;;;34.75;41.32;100845.44;20956678;28;20649;-77
2023/07/28 07:08:56;;;;;;;8.60;3.92;;;;;;;35.04;41.43;100842.97;20939507;28;20041;-77
2023/07/28 07:19:19;;;;;;;7.72;3.10;;;;;;;35.13;42.08;100853.16;20906752;28;20063;-77
2023/07/28 07:29:24;;;;;;;7.30;2.70;;;;;;;35.17;40.87;100866.50;20980759;28;20051;-77
2023/07/28 07:39:47;;;;;;;6.03;2.77;;;;;;;35.37;38.80;100881.31;20952482;28;20044;-77
2023/07/28 07:50:12;;;;;;;9.18;2.90;;;;;;;35.63;36.72;100875.41;20879267;28;20065;-77
2023/07/28 08:00:35;;;;;;;;;;;;;;;35.62;36.02;100885.53;20894424;28;20060;-76
2023/07/28 08:10:59;;;;;;;6.13;2.72;;;;;;;35.78;34.75;100880.44;20877448;28;20317;-76
2023/07/28 08:21:22;;;;;;;8.05;2.20;;;;;;;35.58;34.11;100895.91;20892479;28;20064;-76
2023/07/28 08:31:46;;;;;;;7.55;2.40;;;;;;;35.88;33.17;100884.13;20889604;28;20064;-76
2023/07/28 08:42:09;;;;;;;8.20;2.75;;;;;;;35.87;31.81;100879.63;20886538;28;20049;-77
2023/07/28 08:52:34;;;;;;;9.27;2.28;;;;;;;36.05;29.92;100888.13;20901210;28;20048;-77
2023/07/28 09:02:57;;;;;;;5.85;2.15;;;;;;;36.57;28.81;100880.69;20890516;28;20060;-76
2023/07/28 09:13:21;;;;;;;5.80;1.92;;;;;;;36.83;29.69;100886.56;20910544;28;20049;-76
2023/07/28 09:23:46;;;;;;;4.67;1.63;;;;;;;37.03;28.14;100872.69;20901005;28;20099;-76
2023/07/28 09:34:05;;;;;;;3.65;1.50;;;;;;;37.30;26.73;100876.66;20903542;28;20052;-75
2023/07/28 09:44:27;;;;;;;4.07;2.03;;;;;;;37.22;27.27;100874.63;20917258;28;20103;-75
2023/07/28 09:54:58;;;;;;;8.80;1.90;;;;;;;37.05;29.66;100880.81;20882259;28;20099;-76
2023/07/28 10:05:21;;;;;;;7.15;2.40;;;;;;;36.79;29.33;100857.59;20890313;28;20052;-76
2023/07/28 10:15:48;;;;;;;4.97;2.25;;;;;;;36.99;28.58;100846.47;20876725;28;20199;-75
2023/07/28 10:26:11;;;;;;;6.05;1.98;;;;;;;36.91;28.99;100838.06;20921289;28;20667;-75
2023/07/28 10:36:17;;;;;;;4.00;1.90;;;;;;;36.86;28.73;100856.88;20894797;28;20036;-75
2023/07/28 10:46:40;;;;;;;5.30;1.88;;;;;;;36.69;29.57;100855.69;20908371;28;20045;-75
2023/07/28 10:57:05;;;;;;;4.95;1.73;;;;;;;36.64;29.27;100847.00;20878822;28;20681;-74
2023/07/28 11:07:28;;;;;;;5.37;2.03;;;;;;;36.60;29.99;100842.75;20882217;28;20102;-74
2023/07/28 11:17:53;;;;;;;3.50;1.63;;;;;;;36.51;28.69;100838.09;20891676;28;20676;-75
2023/07/28 11:28:16;;;;;;;8.40;2.25;;;;;;;36.86;28.43;100829.34;20918979;28;20052;-75
2023/07/28 11:38:21;;;;;;;4.80;1.80;;;;;;;36.68;26.88;100829.22;20892640;28;20060;-75
2023/07/28 11:48:25;;;;;;;4.75;2.25;;;;;;;36.79;27.51;100828.19;20934656;28;20136;-75
2023/07/28 11:58:53;;;;;;;4.27;1.60;;;;;;;36.74;25.58;100825.00;20930632;28;20051;-74
2023/07/28 12:09:17;;;;;;;2.17;1.38;;;;;;;36.46;25.03;100821.16;20923412;28;20045;-74
2023/07/28 12:19:57;;;;;;;4.40;1.60;;;;;;;36.14;26.74;100825.94;20925898;28;20194;-75
2023/07/28 12:30:01;;;;;;;6.25;1.83;;;;;;;36.04;26.28;100827.78;20891835;28;20090;-76
2023/07/28 12:40:25;;;;;;;4.15;1.70;;;;;;;36.06;27.37;100807.38;20878078;28;20059;-75
2023/07/28 12:50:49;;;;;;;5.88;1.83;;;;;;;36.11;27.86;100816.06;20904718;28;20041;-74
2023/07/28 13:01:14;;;;;;;6.83;1.73;;;;;;;36.03;27.79;100807.69;20867787;28;20045;-74
2023/07/28 13:11:37;;;;;;;;;;;;;;;35.80;28.71;100800.59;20855675;28;20045;-75
2023/07/28 13:22:03;;;;;;;7.38;2.13;;;;;;;35.61;28.91;100782.13;20901751;28;19927;-74
2023/07/28 13:32:26;;;;;;;;;;;;;;;35.28;29.26;100782.34;20888574;28;20164;-75
2023/07/28 13:42:32;;;;;;;6.40;2.05;;;;;;;35.25;29.89;100766.16;20858358;28;19921;-75
2023/07/28 13:52:56;;;;;;;5.87;1.93;;;;;;;35.17;30.48;100772.28;20863981;28;20405;-76
2023/07/28 14:03:20;;;;;;;7.03;1.85;;;;;;;35.04;30.26;100763.38;20861389;28;20060;-75
2023/07/28 14:13:43;;;;;;;4.75;2.13;;;;;;;34.74;30.22;100756.75;20875562;28;20049;-75
2023/07/28 14:24:09;;;;;;;7.68;2.30;;;;;;;34.58;33.08;100749.94;20851678;28;20136;-76
2023/07/28 14:34:32;;;;;;;11.20;2.42;;;;;;;34.66;33.20;100769.34;20869996;28;20057;-75
2023/07/28 14:45:00;;;;;;;8.93;2.20;;;;;;;34.74;34.43;100778.72;20888714;28;20072;-75
2023/07/28 14:55:24;;;;;;;7.07;2.40;;;;;;;34.48;36.20;100779.13;20901148;28;20064;-76
2023/07/28 15:05:49;;;;;;;6.88;2.50;;;;;;;33.91;41.24;100777.47;20919860;28;20053;-76
2023/07/28 15:16:13;;;;;;;8.77;2.40;;;;;;;32.54;46.13;100784.63;20933181;28;20053;-76
2023/07/28 15:26:38;;;;;;;6.75;2.88;;;;;;;31.86;47.58;100776.91;20942989;28;20493;-75
2023/07/28 15:37:03;;;;;;;7.72;3.10;;;;;;;31.40;49.00;100758.34;20897154;28;20060;-74
2023/07/28 15:47:32;;;;;;;8.25;2.55;;;;;;;31.03;50.66;100767.34;20899203;28;20060;-73
2023/07/28 15:57:55;;;;;;;6.95;2.50;;;;;;;30.62;51.37;100756.53;20903110;28;20115;-74
2023/07/28 16:08:20;;;;;;;8.23;2.75;;;;;;;30.28;55.76;100771.50;20894354;28;20132;-74
2023/07/28 16:18:44;;;;;;;8.75;2.92;;;;;;;30.03;59.80;100774.97;20879149;28;20474;-74
2023/07/28 16:29:08;;;;;;;6.65;2.80;;;;;;;29.85;63.74;100766.13;20870879;28;20493;-74
2023/07/28 16:39:31;;;;;;;6.30;2.78;;;;;;;29.67;64.63;100778.16;20887994;28;20476;-74
2023/07/28 16:49:57;;;;;;;9.05;3.00;;;;;;;29.35;69.01;100777.47;20905693;28;20057;-74
2023/07/28 17:00:20;;;;;;;6.75;2.50;;;;;;;29.15;69.30;100783.22;20853449;28;20067;-73
2023/07/28 17:10:45;;;;;;;7.20;2.55;;;;;;;28.97;70.46;100781.63;20876595;28;20064;-73
2023/07/28 17:21:08;;;;;;;7.60;2.92;;;;;;;28.75;70.91;100782.91;20897037;28;20082;-74
2023/07/28 17:31:32;;;;;;;10.27;3.22;;;;;;;28.52;74.65;100776.09;20905153;28;20128;-74
2023/07/28 17:41:55;;;;;;;6.03;2.50;;;;;;;28.30;74.15;100780.13;20912711;28;20427;-74
2023/07/28 17:52:19;;;;;;;6.75;2.53;;;;;;;28.16;73.45;100788.22;20985144;28;20052;-73
2023/07/28 18:02:42;;;;;;;4.32;2.50;;;;;;;28.02;73.96;100780.84;20983577;28;20056;-74
2023/07/28 18:13:06;;;;;;;8.27;2.35;;;;;;;27.91;73.78;100783.25;20930787;28;20145;-74
2023/07/28 18:23:29;;;;;;;5.95;2.30;;;;;;;27.82;72.59;100784.66;20965975;28;20254;-75
2023/07/28 18:33:54;;;;;;;7.45;2.50;;;;;;;27.73;74.01;100780.59;20941798;28;20045;-74
2023/07/28 18:44:16;;;;;;;6.05;2.50;;;;;;;27.58;76.28;100785.97;20959122;28;20037;-74
2023/07/28 18:54:40;;;;;;;4.63;2.60;;;;;;;27.44;76.58;100793.97;20981227;28;20048;-74
2023/07/28 19:05:03;;;;;;;8.75;2.85;;;;;;;27.28;76.46;100796.63;20931880;28;20052;-75
2023/07/28 19:15:27;;;;;;;6.80;2.50;;;;;;;27.26;73.56;100790.41;20897254;28;20522;-73
2023/07/28 19:25:51;;;;;;;5.85;2.25;;;;;;;27.11;74.28;100789.34;20979019;28;20059;-74
2023/07/28 19:36:15;;;;;;;11.80;3.42;;;;;;;27.04;71.81;100778.94;20961089;28;20068;-75
2023/07/28 19:46:38;;;;;;;4.65;2.05;;;;;;;27.00;72.78;100783.63;20879771;28;20115;-74
2023/07/28 19:57:03;;;;;;;8.18;2.75;;;;;;;26.88;75.20;100777.00;20902033;28;20088;-73
2023/07/28 20:07:26;;;;;;;6.30;2.67;;;;;;;26.71;76.50;100784.25;20877159;28;20142;-73
2023/07/28 20:17:48;;;;;;;4.85;2.33;;;;;;;26.61;76.46;100788.34;20888312;28;20071;-73
2023/07/28 20:28:11;;;;;;;4.35;2.20;;;;;;;26.54;75.82;100795.91;20911111;28;20095;-73
2023/07/28 20:38:35;;;;;;;5.78;2.45;;;;;;;26.46;77.42;100796.28;20887590;28;20079;-74
2023/07/28 20:48:58;;;;;;;3.22;2.53;;;;;;;26.34;80.26;100787.88;20933953;28;20045;-74
2023/07/28 20:59:22;;;;;;;5.60;2.40;;;;;;;26.19;79.01;100774.09;20912636;28;20052;-73
2023/07/28 21:09:45;;;;;;;5.15;2.28;;;;;;;26.23;72.44;100773.97;20905560;28;20055;-74
2023/07/28 21:20:10;;;;;;;4.43;1.90;;;;;;;26.27;69.66;100775.59;20914374;28;20040;-74
2023/07/28 21:30:33;;;;;;;5.55;2.10;;;;;;;26.13;69.27;100782.53;20960542;28;20049;-74
2023/07/28 21:40:58;;;;;;;3.58;2.03;;;;;;;26.01;67.96;100769.59;20899619;28;20045;-74
2023/07/28 21:51:21;;;;;;;6.13;2.55;;;;;;;25.98;70.55;100767.06;20897445;28;20132;-74
2023/07/28 22:01:46;;;;;;;5.53;2.72;;;;;;;25.92;71.71;100769.19;20916579;28;20064;-74
2023/07/28 22:12:09;;;;;;;7.30;2.30;;;;;;;25.84;71.82;100756.00;20906245;28;20040;-74
2023/07/28 22:22:34;;;;;;;4.75;2.28;;;;;;;25.73;72.07;100742.13;20928875;28;20048;-74
2023/07/28 22:32:57;;;;;;;5.53;2.35;;;;;;;25.56;72.85;100737.47;20886495;28;20103;-75
2023/07/28 22:43:22;;;;;;;5.47;1.92;;;;;;;25.38;74.25;100717.56;20881520;28;20049;-75
2023/07/28 22:53:44;;;;;;;6.20;2.00;;;;;;;25.31;74.57;100710.69;20886800;28;20056;-75
2023/07/28 23:04:09;;;;;;;3.85;1.95;;;;;;;25.25;75.11;100685.78;20894508;28;20098;-75
2023/07/28 23:14:32;;;;;;;4.20;2.00;;;;;;;25.18;74.18;100679.78;20903292;28;20049;-75
2023/07/28 23:24:56;;;;;;;4.25;2.20;;;;;;;25.13;71.10;100673.72;20904512;28;20115;-75
2023/07/28 23:35:19;;;;;;;3.75;2.35;;;;;;;25.05;68.62;100666.88;20925914;28;20048;-74
2023/07/28 23:45:43;;;;;;;6.30;2.15;;;;;;;25.06;66.73;100658.72;20889246;28;20052;-75
2023/07/28 23:56:05;;;;;;;5.88;2.45;;;;;;;25.01;65.38;100645.41;20905829;28;20172;-75
